createdAt,value
2022-12-01T00:00:22.572Z,1027.51
2022-12-01T00:01:25.211Z,1027.55
2022-12-01T00:02:29.032Z,1027.52
2022-12-01T00:04:05.093Z,1027.54
2022-12-01T00:05:07.803Z,1027.54
2022-12-01T00:06:10.529Z,1027.54
2022-12-01T00:07:45.306Z,1027.57
2022-12-01T00:08:48.442Z,1027.56
2022-12-01T00:09:51.712Z,1027.58
2022-12-01T00:11:26.261Z,1027.60
2022-12-01T00:12:28.936Z,1027.57
2022-12-01T00:13:31.735Z,1027.58
2022-12-01T00:15:06.326Z,1027.60
2022-12-01T00:16:09.111Z,1027.57
2022-12-01T00:17:12.171Z,1027.59
2022-12-01T00:18:46.655Z,1027.59
2022-12-01T00:19:49.849Z,1027.56
2022-12-01T00:20:52.872Z,1027.56
2022-12-01T00:22:27.340Z,1027.54
2022-12-01T00:23:30.077Z,1027.60
2022-12-01T00:24:32.772Z,1027.59
2022-12-01T00:26:07.352Z,1027.58
2022-12-01T00:27:10.132Z,1027.60
2022-12-01T00:28:12.955Z,1027.57
2022-12-01T00:29:47.738Z,1027.56
2022-12-01T00:30:50.975Z,1027.51
2022-12-01T00:31:53.938Z,1027.56
2022-12-01T00:33:28.885Z,1027.52
2022-12-01T00:34:31.719Z,1027.52
2022-12-01T00:35:34.571Z,1027.50
2022-12-01T00:37:09.203Z,1027.51
2022-12-01T00:38:11.875Z,1027.48
2022-12-01T00:39:14.600Z,1027.47
2022-12-01T00:40:49.195Z,1027.48
2022-12-01T00:41:52.019Z,1027.51
2022-12-01T00:42:59.682Z,1027.53
2022-12-01T00:44:34.131Z,1027.50
2022-12-01T00:45:37.100Z,1027.51
2022-12-01T00:46:40.532Z,1027.54
2022-12-01T00:48:15.245Z,1027.53
2022-12-01T00:49:17.972Z,1027.54
2022-12-01T00:50:20.719Z,1027.51
2022-12-01T00:51:55.388Z,1027.54
2022-12-01T00:52:58.065Z,1027.59
2022-12-01T00:54:00.839Z,1027.57
2022-12-01T00:55:35.364Z,1027.57
2022-12-01T00:56:37.998Z,1027.58
2022-12-01T00:57:40.737Z,1027.60
2022-12-01T00:59:15.124Z,1027.57
2022-12-01T01:00:23.127Z,1027.63
2022-12-01T01:01:26.108Z,1027.56
2022-12-01T01:02:29.456Z,1027.60
2022-12-01T01:04:04.218Z,1027.59
2022-12-01T01:05:06.924Z,1027.59
2022-12-01T01:06:09.725Z,1027.63
2022-12-01T01:07:44.548Z,1027.59
2022-12-01T01:08:47.634Z,1027.66
2022-12-01T01:09:50.553Z,1027.62
2022-12-01T01:11:25.091Z,1027.66
2022-12-01T01:12:27.826Z,1027.61
2022-12-01T01:13:30.482Z,1027.63
2022-12-01T01:15:04.985Z,1027.61
2022-12-01T01:16:07.920Z,1027.63
2022-12-01T01:17:11.305Z,1027.60
2022-12-01T01:18:46.049Z,1027.63
2022-12-01T01:19:49.123Z,1027.64
2022-12-01T01:20:52.087Z,1027.66
2022-12-01T01:22:26.597Z,1027.69
2022-12-01T01:23:29.356Z,1027.69
2022-12-01T01:24:32.124Z,1027.68
2022-12-01T01:26:06.688Z,1027.69
2022-12-01T01:27:09.522Z,1027.68
2022-12-01T01:28:12.104Z,1027.70
2022-12-01T01:29:46.972Z,1027.68
2022-12-01T01:30:50.267Z,1027.68
2022-12-01T01:31:53.289Z,1027.72
2022-12-01T01:33:27.714Z,1027.71
2022-12-01T01:34:30.343Z,1027.73
2022-12-01T01:35:33.091Z,1027.73
2022-12-01T01:37:07.578Z,1027.70
2022-12-01T01:38:10.361Z,1027.72
2022-12-01T01:39:13.119Z,1027.67
2022-12-01T01:40:47.946Z,1027.71
2022-12-01T01:41:50.695Z,1027.72
2022-12-01T01:42:53.433Z,1027.71
2022-12-01T01:44:28.016Z,1027.76
2022-12-01T01:45:30.725Z,1027.73
2022-12-01T01:46:34.049Z,1027.75
2022-12-01T01:48:08.605Z,1027.72
2022-12-01T01:49:11.403Z,1027.73
2022-12-01T01:50:14.064Z,1027.72
2022-12-01T01:51:48.504Z,1027.74
2022-12-01T01:52:51.349Z,1027.76
2022-12-01T01:53:54.087Z,1027.75
2022-12-01T01:55:28.688Z,1027.77
2022-12-01T01:56:31.624Z,1027.74
2022-12-01T01:57:34.338Z,1027.77
2022-12-01T01:59:08.871Z,1027.78
2022-12-01T02:00:22.743Z,1027.81
2022-12-01T02:01:25.903Z,1027.81
2022-12-01T02:02:29.137Z,1027.83
2022-12-01T02:04:04.494Z,1027.84
2022-12-01T02:05:07.281Z,1027.81
2022-12-01T02:06:16.230Z,1027.80
2022-12-01T02:07:51.068Z,1027.81
2022-12-01T02:08:54.341Z,1027.80
2022-12-01T02:09:57.712Z,1027.82
2022-12-01T02:11:32.184Z,1027.80
2022-12-01T02:12:35.000Z,1027.79
2022-12-01T02:13:37.773Z,1027.86
2022-12-01T02:15:12.310Z,1027.86
2022-12-01T02:16:15.092Z,1027.85
2022-12-01T02:17:18.116Z,1027.82
2022-12-01T02:18:59.448Z,1027.85
2022-12-01T02:20:02.483Z,1027.84
2022-12-01T02:21:05.239Z,1027.77
2022-12-01T02:22:39.689Z,1027.80
2022-12-01T02:23:49.403Z,1027.79
2022-12-01T02:24:52.018Z,1027.77
2022-12-01T02:26:26.541Z,1027.81
2022-12-01T02:27:29.284Z,1027.75
2022-12-01T02:28:31.904Z,1027.76
2022-12-01T02:30:06.384Z,1027.74
2022-12-01T02:31:09.472Z,1027.71
2022-12-01T02:32:12.561Z,1027.68
2022-12-01T02:33:47.107Z,1027.69
2022-12-01T02:34:49.844Z,1027.70
2022-12-01T02:35:52.607Z,1027.67
2022-12-01T02:37:27.087Z,1027.67
2022-12-01T02:38:29.788Z,1027.69
2022-12-01T02:39:32.550Z,1027.70
2022-12-01T02:41:07.324Z,1027.68
2022-12-01T02:42:10.012Z,1027.69
2022-12-01T02:43:12.713Z,1027.69
2022-12-01T02:44:47.238Z,1027.67
2022-12-01T02:45:50.184Z,1027.68
2022-12-01T02:46:53.249Z,1027.69
2022-12-01T02:48:27.725Z,1027.65
2022-12-01T02:49:30.489Z,1027.67
2022-12-01T02:50:33.917Z,1027.70
2022-12-01T02:52:08.352Z,1027.73
2022-12-01T02:53:11.119Z,1027.70
2022-12-01T02:54:13.737Z,1027.71
2022-12-01T02:55:48.245Z,1027.74
2022-12-01T02:56:51.046Z,1027.73
2022-12-01T02:57:53.760Z,1027.76
2022-12-01T02:59:28.328Z,1027.75
2022-12-01T03:00:22.355Z,1027.78
2022-12-01T03:01:25.290Z,1027.76
2022-12-01T03:02:28.771Z,1027.77
2022-12-01T03:04:03.789Z,1027.75
2022-12-01T03:05:06.601Z,1027.79
2022-12-01T03:06:09.411Z,1027.79
2022-12-01T03:07:44.216Z,1027.79
2022-12-01T03:08:47.299Z,1027.81
2022-12-01T03:09:50.396Z,1027.87
2022-12-01T03:11:25.292Z,1027.92
2022-12-01T03:12:28.179Z,1027.86
2022-12-01T03:13:30.940Z,1027.91
2022-12-01T03:15:05.415Z,1027.87
2022-12-01T03:16:08.499Z,1027.88
2022-12-01T03:17:11.711Z,1027.87
2022-12-01T03:18:46.197Z,1027.88
2022-12-01T03:19:49.153Z,1027.86
2022-12-01T03:20:51.961Z,1027.82
2022-12-01T03:22:26.627Z,1027.87
2022-12-01T03:23:29.276Z,1027.85
2022-12-01T03:24:32.045Z,1027.81
2022-12-01T03:26:06.650Z,1027.80
2022-12-01T03:27:09.488Z,1027.84
2022-12-01T03:28:32.655Z,1027.82
2022-12-01T03:30:07.239Z,1027.75
2022-12-01T03:31:10.385Z,1027.75
2022-12-01T03:32:13.397Z,1027.77
2022-12-01T03:33:47.925Z,1027.73
2022-12-01T03:34:50.611Z,1027.75
2022-12-01T03:35:53.386Z,1027.80
2022-12-01T03:37:27.923Z,1027.78
2022-12-01T03:38:30.633Z,1027.77
2022-12-01T03:39:33.440Z,1027.76
2022-12-01T03:41:09.171Z,1027.74
2022-12-01T03:42:12.040Z,1027.71
2022-12-01T03:43:14.813Z,1027.74
2022-12-01T03:44:49.329Z,1027.76
2022-12-01T03:45:52.239Z,1027.76
2022-12-01T03:46:55.475Z,1027.77
2022-12-01T03:48:30.193Z,1027.79
2022-12-01T03:49:32.891Z,1027.84
2022-12-01T03:50:35.990Z,1027.80
2022-12-01T03:52:10.466Z,1027.76
2022-12-01T03:53:13.118Z,1027.78
2022-12-01T03:54:15.893Z,1027.76
2022-12-01T03:55:50.387Z,1027.76
2022-12-01T03:56:53.199Z,1027.77
2022-12-01T03:57:55.918Z,1027.84
2022-12-01T03:59:30.426Z,1027.80
2022-12-01T04:00:22.961Z,1027.81
2022-12-01T04:01:26.037Z,1027.85
2022-12-01T04:02:29.386Z,1027.83
2022-12-01T04:04:04.581Z,1027.82
2022-12-01T04:05:07.494Z,1027.85
2022-12-01T04:06:16.782Z,1027.84
2022-12-01T04:07:51.546Z,1027.83
2022-12-01T04:08:54.682Z,1027.83
2022-12-01T04:09:57.948Z,1027.82
2022-12-01T04:11:38.339Z,1027.81
2022-12-01T04:12:41.029Z,1027.80
2022-12-01T04:13:43.800Z,1027.73
2022-12-01T04:15:18.387Z,1027.81
2022-12-01T04:16:21.404Z,1027.82
2022-12-01T04:17:24.521Z,1027.80
2022-12-01T04:18:59.027Z,1027.79
2022-12-01T04:20:02.088Z,1027.75
2022-12-01T04:21:04.721Z,1027.72
2022-12-01T04:22:39.371Z,1027.78
2022-12-01T04:23:42.088Z,1027.77
2022-12-01T04:24:44.762Z,1027.77
2022-12-01T04:26:26.707Z,1027.79
2022-12-01T04:27:29.465Z,1027.79
2022-12-01T04:28:32.197Z,1027.83
2022-12-01T04:30:06.768Z,1027.85
2022-12-01T04:31:09.822Z,1027.83
2022-12-01T04:32:12.841Z,1027.85
2022-12-01T04:33:47.413Z,1027.85
2022-12-01T04:34:50.244Z,1027.88
2022-12-01T04:35:52.944Z,1027.89
2022-12-01T04:37:27.479Z,1027.92
2022-12-01T04:38:36.041Z,1027.96
2022-12-01T04:39:38.788Z,1027.93
2022-12-01T04:41:13.620Z,1027.91
2022-12-01T04:42:16.393Z,1027.91
2022-12-01T04:43:19.100Z,1027.91
2022-12-01T04:44:53.674Z,1027.94
2022-12-01T04:45:56.497Z,1027.94
2022-12-01T04:46:59.566Z,1027.92
2022-12-01T04:48:34.328Z,1027.92
2022-12-01T04:49:36.956Z,1027.89
2022-12-01T04:50:40.003Z,1027.88
2022-12-01T04:52:14.496Z,1027.85
2022-12-01T04:53:22.249Z,1027.88
2022-12-01T04:54:25.034Z,1027.84
2022-12-01T04:55:59.513Z,1027.85
2022-12-01T04:57:02.240Z,1027.80
2022-12-01T04:58:04.971Z,1027.85
2022-12-01T04:59:39.530Z,1027.82
2022-12-01T05:00:23.231Z,1027.85
2022-12-01T05:01:26.356Z,1027.86
2022-12-01T05:02:29.891Z,1027.86
2022-12-01T05:04:11.886Z,1027.88
2022-12-01T05:05:52.698Z,1027.88
2022-12-01T05:06:55.329Z,1027.84
2022-12-01T05:07:58.307Z,1027.87
2022-12-01T05:09:33.035Z,1027.80
2022-12-01T05:10:36.342Z,1027.86
2022-12-01T05:11:39.154Z,1027.84
2022-12-01T05:13:13.711Z,1027.81
2022-12-01T05:14:16.421Z,1027.79
2022-12-01T05:15:19.102Z,1027.79
2022-12-01T05:16:54.003Z,1027.82
2022-12-01T05:17:56.698Z,1027.80
2022-12-01T05:18:59.558Z,1027.80
2022-12-01T05:20:34.877Z,1027.83
2022-12-01T05:21:37.602Z,1027.81
2022-12-01T05:23:22.077Z,1027.82
2022-12-01T05:24:56.599Z,1027.82
2022-12-01T05:25:59.504Z,1027.86
2022-12-01T05:27:02.283Z,1027.86
2022-12-01T05:28:36.795Z,1027.88
2022-12-01T05:29:39.548Z,1027.88
2022-12-01T05:30:42.633Z,1027.89
2022-12-01T05:32:17.713Z,1027.89
2022-12-01T05:33:20.330Z,1027.87
2022-12-01T05:34:23.149Z,1027.89
2022-12-01T05:35:57.722Z,1027.93
2022-12-01T05:37:00.502Z,1027.89
2022-12-01T05:38:07.555Z,1027.91
2022-12-01T05:39:42.590Z,1027.89
2022-12-01T05:40:45.873Z,1027.92
2022-12-01T05:41:48.548Z,1027.92
2022-12-01T05:43:28.547Z,1027.92
2022-12-01T05:44:31.581Z,1027.96
2022-12-01T05:45:34.517Z,1027.92
2022-12-01T05:47:09.713Z,1027.91
2022-12-01T05:48:12.400Z,1027.90
2022-12-01T05:49:15.128Z,1027.94
2022-12-01T05:50:56.922Z,1027.90
2022-12-01T05:51:59.675Z,1027.93
2022-12-01T05:53:02.376Z,1027.92
2022-12-01T05:54:36.963Z,1027.90
2022-12-01T05:55:39.883Z,1027.93
2022-12-01T05:56:42.603Z,1027.88
2022-12-01T05:58:17.172Z,1027.85
2022-12-01T05:59:19.972Z,1027.91
2022-12-01T06:00:23.598Z,1027.91
2022-12-01T06:01:32.151Z,1027.95
2022-12-01T06:02:35.231Z,1027.94
2022-12-01T06:04:09.955Z,1027.89
2022-12-01T06:05:12.861Z,1027.94
2022-12-01T06:06:15.593Z,1027.95
2022-12-01T06:07:50.264Z,1027.88
2022-12-01T06:08:53.228Z,1027.89
2022-12-01T06:09:56.368Z,1027.89
2022-12-01T06:11:30.915Z,1027.94
2022-12-01T06:12:38.444Z,1027.96
2022-12-01T06:13:41.209Z,1027.96
2022-12-01T06:15:15.768Z,1027.99
2022-12-01T06:16:18.668Z,1028.01
2022-12-01T06:17:21.931Z,1027.97
2022-12-01T06:19:03.414Z,1028.04
2022-12-01T06:20:06.134Z,1028.05
2022-12-01T06:21:08.835Z,1028.05
2022-12-01T06:22:43.457Z,1028.09
2022-12-01T06:23:46.180Z,1028.04
2022-12-01T06:24:48.821Z,1028.07
2022-12-01T06:26:23.539Z,1028.08
2022-12-01T06:27:26.256Z,1028.10
2022-12-01T06:28:29.081Z,1028.08
2022-12-01T06:30:04.310Z,1028.08
2022-12-01T06:31:14.586Z,1028.11
2022-12-01T06:32:17.872Z,1028.10
2022-12-01T06:33:52.705Z,1028.11
2022-12-01T06:34:55.465Z,1028.07
2022-12-01T06:35:58.058Z,1028.11
2022-12-01T06:37:32.663Z,1028.07
2022-12-01T06:38:35.281Z,1028.09
2022-12-01T06:39:38.008Z,1028.10
2022-12-01T06:41:12.740Z,1028.09
2022-12-01T06:42:15.417Z,1028.14
2022-12-01T06:43:18.195Z,1028.14
2022-12-01T06:44:53.110Z,1028.09
2022-12-01T06:46:01.314Z,1028.12
2022-12-01T06:47:05.179Z,1028.12
2022-12-01T06:48:39.889Z,1028.04
2022-12-01T06:49:42.625Z,1028.08
2022-12-01T06:50:45.711Z,1028.06
2022-12-01T06:52:20.316Z,1028.11
2022-12-01T06:53:22.986Z,1028.07
2022-12-01T06:54:25.902Z,1028.08
2022-12-01T06:56:01.434Z,1028.09
2022-12-01T06:57:06.213Z,1028.14
2022-12-01T06:58:10.208Z,1028.13
2022-12-01T06:59:47.020Z,1028.16
2022-12-01T07:00:24.262Z,1028.20
2022-12-01T07:01:27.240Z,1028.18
2022-12-01T07:02:30.464Z,1028.20
2022-12-01T07:04:05.366Z,1028.19
2022-12-01T07:05:08.005Z,1028.21
2022-12-01T07:06:10.790Z,1028.22
2022-12-01T07:07:45.656Z,1028.25
2022-12-01T07:08:56.688Z,1028.25
2022-12-01T07:10:00.035Z,1028.22
2022-12-01T07:11:34.612Z,1028.25
2022-12-01T07:12:37.290Z,1028.21
2022-12-01T07:13:44.766Z,1028.19
2022-12-01T07:15:19.371Z,1028.24
2022-12-01T07:16:22.277Z,1028.28
2022-12-01T07:17:25.344Z,1028.31
2022-12-01T07:18:59.996Z,1028.28
2022-12-01T07:20:03.094Z,1028.30
2022-12-01T07:21:05.883Z,1028.32
2022-12-01T07:22:44.250Z,1028.30
2022-12-01T07:23:47.063Z,1028.31
2022-12-01T07:24:49.811Z,1028.35
2022-12-01T07:26:24.487Z,1028.38
2022-12-01T07:27:27.328Z,1028.43
2022-12-01T07:28:30.080Z,1028.43
2022-12-01T07:30:04.802Z,1028.44
2022-12-01T07:31:14.935Z,1028.39
2022-12-01T07:32:18.108Z,1028.45
2022-12-01T07:33:52.569Z,1028.39
2022-12-01T07:34:55.439Z,1028.43
2022-12-01T07:35:58.402Z,1028.46
2022-12-01T07:37:32.937Z,1028.47
2022-12-01T07:38:35.880Z,1028.50
2022-12-01T07:39:38.542Z,1028.47
2022-12-01T07:41:13.816Z,1028.46
2022-12-01T07:42:16.462Z,1028.47
2022-12-01T07:43:19.276Z,1028.44
2022-12-01T07:44:53.905Z,1028.47
2022-12-01T07:45:56.801Z,1028.45
2022-12-01T07:47:06.474Z,1028.45
2022-12-01T07:48:41.067Z,1028.49
2022-12-01T07:49:43.938Z,1028.48
2022-12-01T07:50:47.311Z,1028.50
2022-12-01T07:52:21.824Z,1028.53
2022-12-01T07:53:24.547Z,1028.52
2022-12-01T07:54:27.258Z,1028.49
2022-12-01T07:56:05.653Z,1028.48
2022-12-01T07:57:11.253Z,1028.52
2022-12-01T07:58:13.976Z,1028.52
2022-12-01T07:59:48.867Z,1028.49
2022-12-01T08:00:23.173Z,1028.54
2022-12-01T08:01:26.572Z,1028.54
2022-12-01T08:02:36.124Z,1028.57
2022-12-01T08:04:11.292Z,1028.57
2022-12-01T08:05:14.160Z,1028.58
2022-12-01T08:06:17.158Z,1028.58
2022-12-01T08:07:51.930Z,1028.62
2022-12-01T08:08:54.985Z,1028.60
2022-12-01T08:09:58.120Z,1028.61
2022-12-01T08:11:32.739Z,1028.61
2022-12-01T08:12:35.407Z,1028.62
2022-12-01T08:13:38.179Z,1028.67
2022-12-01T08:15:12.673Z,1028.60
2022-12-01T08:16:15.966Z,1028.67
2022-12-01T08:17:18.822Z,1028.63
2022-12-01T08:18:53.442Z,1028.66
2022-12-01T08:19:56.592Z,1028.68
2022-12-01T08:20:59.340Z,1028.71
2022-12-01T08:22:34.011Z,1028.69
2022-12-01T08:23:36.842Z,1028.69
2022-12-01T08:24:39.635Z,1028.69
2022-12-01T08:26:14.122Z,1028.67
2022-12-01T08:27:16.944Z,1028.69
2022-12-01T08:28:19.795Z,1028.68
2022-12-01T08:29:54.744Z,1028.68
2022-12-01T08:30:57.731Z,1028.63
2022-12-01T08:32:00.845Z,1028.65
2022-12-01T08:33:35.425Z,1028.68
2022-12-01T08:34:38.227Z,1028.63
2022-12-01T08:35:45.442Z,1028.64
2022-12-01T08:37:19.931Z,1028.62
2022-12-01T08:38:22.642Z,1028.69
2022-12-01T08:39:25.467Z,1028.70
2022-12-01T08:41:00.230Z,1028.71
2022-12-01T08:42:02.974Z,1028.66
2022-12-01T08:43:05.722Z,1028.69
2022-12-01T08:45:23.247Z,1028.72
2022-12-01T08:46:26.350Z,1028.72
2022-12-01T08:47:30.406Z,1028.73
2022-12-01T08:49:04.877Z,1028.68
2022-12-01T08:50:07.762Z,1028.68
2022-12-01T08:51:10.570Z,1028.69
2022-12-01T08:52:45.118Z,1028.68
2022-12-01T08:53:53.755Z,1028.68
2022-12-01T08:54:56.467Z,1028.67
2022-12-01T08:56:31.055Z,1028.65
2022-12-01T08:57:33.829Z,1028.66
2022-12-01T08:58:36.585Z,1028.70
2022-12-01T09:00:22.784Z,1028.70
2022-12-01T09:01:26.036Z,1028.71
2022-12-01T09:02:29.726Z,1028.73
2022-12-01T09:04:04.849Z,1028.70
2022-12-01T09:05:07.637Z,1028.69
2022-12-01T09:06:10.326Z,1028.72
2022-12-01T09:07:45.218Z,1028.71
2022-12-01T09:08:48.360Z,1028.71
2022-12-01T09:09:51.419Z,1028.73
2022-12-01T09:11:26.242Z,1028.72
2022-12-01T09:12:29.019Z,1028.73
2022-12-01T09:13:31.887Z,1028.72
2022-12-01T09:15:12.225Z,1028.74
2022-12-01T09:16:15.308Z,1028.73
2022-12-01T09:17:18.729Z,1028.77
2022-12-01T09:18:53.131Z,1028.76
2022-12-01T09:19:59.814Z,1028.80
2022-12-01T09:21:02.507Z,1028.79
2022-12-01T09:22:37.231Z,1028.82
2022-12-01T09:23:39.970Z,1028.80
2022-12-01T09:24:42.661Z,1028.84
2022-12-01T09:26:23.678Z,1028.83
2022-12-01T09:27:26.526Z,1028.84
2022-12-01T09:28:29.401Z,1028.86
2022-12-01T09:30:03.961Z,1028.85
2022-12-01T09:31:07.256Z,1028.85
2022-12-01T09:32:10.589Z,1028.87
2022-12-01T09:33:45.200Z,1028.83
2022-12-01T09:34:47.946Z,1028.84
2022-12-01T09:35:50.591Z,1028.83
2022-12-01T09:37:25.182Z,1028.84
2022-12-01T09:38:28.005Z,1028.77
2022-12-01T09:39:30.850Z,1028.80
2022-12-01T09:41:06.016Z,1028.78
2022-12-01T09:42:14.862Z,1028.76
2022-12-01T09:43:25.475Z,1028.76
2022-12-01T09:45:00.119Z,1028.76
2022-12-01T09:46:03.096Z,1028.74
2022-12-01T09:47:06.329Z,1028.78
2022-12-01T09:48:41.077Z,1028.75
2022-12-01T09:49:43.771Z,1028.78
2022-12-01T09:50:47.013Z,1028.75
2022-12-01T09:52:21.619Z,1028.78
2022-12-01T09:53:24.395Z,1028.77
2022-12-01T09:54:27.185Z,1028.78
2022-12-01T09:56:13.070Z,1028.76
2022-12-01T09:57:15.990Z,1028.76
2022-12-01T09:58:18.809Z,1028.81
2022-12-01T09:59:53.772Z,1028.72
2022-12-01T10:00:22.366Z,1028.76
2022-12-01T10:01:32.683Z,1028.76
2022-12-01T10:02:36.172Z,1028.79
2022-12-01T10:04:10.720Z,1028.74
2022-12-01T10:05:13.674Z,1028.69
2022-12-01T10:06:40.616Z,1028.73
2022-12-01T10:08:15.633Z,1028.71
2022-12-01T10:09:24.247Z,1028.68
2022-12-01T10:10:26.975Z,1028.66
2022-12-01T10:12:01.643Z,1028.63
2022-12-01T10:13:04.391Z,1028.66
2022-12-01T10:14:07.200Z,1028.65
2022-12-01T10:15:48.680Z,1028.60
2022-12-01T10:16:52.021Z,1028.56
2022-12-01T10:17:54.885Z,1028.59
2022-12-01T10:19:29.296Z,1028.58
2022-12-01T10:20:32.078Z,1028.56
2022-12-01T10:21:34.787Z,1028.56
2022-12-01T10:23:09.381Z,1028.54
2022-12-01T10:24:12.092Z,1028.57
2022-12-01T10:25:14.774Z,1028.48
2022-12-01T10:26:49.366Z,1028.51
2022-12-01T10:27:51.994Z,1028.50
2022-12-01T10:28:54.865Z,1028.50
2022-12-01T10:30:33.936Z,1028.53
2022-12-01T10:31:36.823Z,1028.49
2022-12-01T10:32:39.997Z,1028.48
2022-12-01T10:34:14.555Z,1028.49
2022-12-01T10:35:17.379Z,1028.46
2022-12-01T10:36:20.185Z,1028.45
2022-12-01T10:37:55.000Z,1028.45
2022-12-01T10:38:58.123Z,1028.51
2022-12-01T10:40:01.363Z,1028.44
2022-12-01T10:41:36.106Z,1028.46
2022-12-01T10:42:39.197Z,1028.41
2022-12-01T10:43:41.919Z,1028.41
2022-12-01T10:45:16.696Z,1028.45
2022-12-01T10:46:19.884Z,1028.46
2022-12-01T10:47:22.612Z,1028.43
2022-12-01T10:48:57.210Z,1028.41
2022-12-01T10:50:00.521Z,1028.40
2022-12-01T10:51:03.504Z,1028.45
2022-12-01T10:52:38.101Z,1028.41
2022-12-01T10:53:41.082Z,1028.48
2022-12-01T10:54:43.815Z,1028.47
2022-12-01T10:56:18.395Z,1028.41
2022-12-01T10:57:21.101Z,1028.43
2022-12-01T10:58:23.812Z,1028.40
2022-12-01T10:59:59.113Z,1028.37
2022-12-01T11:01:06.066Z,1028.37
2022-12-01T11:02:10.298Z,1028.38
2022-12-01T11:03:19.971Z,1028.34
2022-12-01T11:04:57.387Z,1028.32
2022-12-01T11:06:00.220Z,1028.32
2022-12-01T11:07:02.986Z,1028.29
2022-12-01T11:08:38.124Z,1028.32
2022-12-01T11:09:40.979Z,1028.36
2022-12-01T11:10:44.386Z,1028.36
2022-12-01T11:12:19.053Z,1028.34
2022-12-01T11:13:21.748Z,1028.36
2022-12-01T11:14:24.603Z,1028.34
2022-12-01T11:15:59.142Z,1028.36
2022-12-01T11:17:02.438Z,1028.39
2022-12-01T11:18:05.360Z,1028.33
2022-12-01T11:19:40.694Z,1028.32
2022-12-01T11:20:45.089Z,1028.30
2022-12-01T11:21:48.142Z,1028.29
2022-12-01T11:23:22.746Z,1028.26
2022-12-01T11:24:25.688Z,1028.25
2022-12-01T11:25:28.395Z,1028.26
2022-12-01T11:27:03.046Z,1028.22
2022-12-01T11:28:05.832Z,1028.22
2022-12-01T11:29:08.677Z,1028.21
2022-12-01T11:30:43.899Z,1028.13
2022-12-01T11:31:53.943Z,1028.10
2022-12-01T11:32:57.085Z,1028.11
2022-12-01T11:34:31.689Z,1028.07
2022-12-01T11:35:34.956Z,1028.03
2022-12-01T11:36:37.751Z,1028.02
2022-12-01T11:38:40.260Z,1027.99
2022-12-01T11:39:43.079Z,1027.99
2022-12-01T11:40:46.313Z,1028.04
2022-12-01T11:42:21.105Z,1028.00
2022-12-01T11:43:23.786Z,1028.01
2022-12-01T11:45:02.408Z,1027.98
2022-12-01T11:46:45.972Z,1027.99
2022-12-01T11:48:18.541Z,1027.96
2022-12-01T11:49:21.317Z,1027.96
2022-12-01T11:51:03.266Z,1027.96
2022-12-01T11:52:06.039Z,1027.95
2022-12-01T11:53:08.849Z,1027.94
2022-12-01T11:54:43.601Z,1027.94
2022-12-01T11:55:51.751Z,1027.95
2022-12-01T11:57:33.189Z,1027.92
2022-12-01T11:59:48.161Z,1027.91
2022-12-01T12:00:22.435Z,1027.91
2022-12-01T12:01:33.074Z,1027.89
2022-12-01T12:02:36.076Z,1027.94
2022-12-01T12:04:10.964Z,1027.91
2022-12-01T12:05:13.924Z,1027.89
2022-12-01T12:06:50.496Z,1027.84
2022-12-01T12:08:25.309Z,1027.88
2022-12-01T12:09:28.377Z,1027.87
2022-12-01T12:10:37.837Z,1027.83
2022-12-01T12:12:12.928Z,1027.85
2022-12-01T12:13:15.721Z,1027.84
2022-12-01T12:14:18.837Z,1027.85
2022-12-01T12:15:54.853Z,1027.81
2022-12-01T12:16:57.674Z,1027.83
2022-12-01T12:18:01.196Z,1027.80
2022-12-01T12:20:13.667Z,1027.79
2022-12-01T12:21:16.913Z,1027.79
2022-12-01T12:22:19.842Z,1027.78
2022-12-01T12:23:54.455Z,1027.77
2022-12-01T12:24:57.225Z,1027.78
2022-12-01T12:26:00.064Z,1027.78
2022-12-01T12:27:34.684Z,1027.79
2022-12-01T12:28:37.471Z,1027.76
2022-12-01T12:29:40.190Z,1027.74
2022-12-01T12:31:15.753Z,1027.74
2022-12-01T12:32:18.692Z,1027.72
2022-12-01T12:33:21.595Z,1027.73
2022-12-01T12:34:56.210Z,1027.69
2022-12-01T12:35:58.906Z,1027.69
2022-12-01T12:37:01.701Z,1027.69
2022-12-01T12:38:36.364Z,1027.68
2022-12-01T12:39:39.173Z,1027.71
2022-12-01T12:40:42.619Z,1027.70
2022-12-01T12:42:17.136Z,1027.71
2022-12-01T12:43:20.033Z,1027.77
2022-12-01T12:44:22.861Z,1027.74
2022-12-01T12:46:04.831Z,1027.72
2022-12-01T12:47:07.859Z,1027.69
2022-12-01T12:48:10.601Z,1027.60
2022-12-01T12:50:15.676Z,1027.63
2022-12-01T12:51:18.400Z,1027.66
2022-12-01T12:52:21.237Z,1027.60
2022-12-01T12:53:55.971Z,1027.59
2022-12-01T12:54:59.234Z,1027.55
2022-12-01T12:56:02.114Z,1027.58
2022-12-01T12:57:36.635Z,1027.54
2022-12-01T12:58:39.459Z,1027.54
2022-12-01T12:59:42.177Z,1027.54
2022-12-01T13:00:23.107Z,1027.52
2022-12-01T13:01:26.151Z,1027.53
2022-12-01T13:02:29.456Z,1027.53
2022-12-01T13:04:04.668Z,1027.59
2022-12-01T13:05:07.427Z,1027.53
2022-12-01T13:06:10.217Z,1027.51
2022-12-01T13:07:44.987Z,1027.52
2022-12-01T13:08:50.369Z,1027.54
2022-12-01T13:09:53.937Z,1027.55
2022-12-01T13:11:30.036Z,1027.50
2022-12-01T13:12:32.789Z,1027.53
2022-12-01T13:13:35.495Z,1027.55
2022-12-01T13:15:12.666Z,1027.50
2022-12-01T13:16:15.996Z,1027.54
2022-12-01T13:17:18.975Z,1027.53
2022-12-01T13:18:53.546Z,1027.53
2022-12-01T13:19:56.918Z,1027.48
2022-12-01T13:20:59.616Z,1027.52
2022-12-01T13:22:34.849Z,1027.49
2022-12-01T13:23:37.595Z,1027.45
2022-12-01T13:24:40.307Z,1027.43
2022-12-01T13:26:14.976Z,1027.45
2022-12-01T13:27:17.812Z,1027.48
2022-12-01T13:28:20.654Z,1027.41
2022-12-01T13:29:55.969Z,1027.42
2022-12-01T13:30:58.918Z,1027.41
2022-12-01T13:32:02.125Z,1027.41
2022-12-01T13:33:36.860Z,1027.38
2022-12-01T13:34:39.831Z,1027.38
2022-12-01T13:35:42.832Z,1027.39
2022-12-01T13:38:10.979Z,1027.31
2022-12-01T13:39:13.766Z,1027.33
2022-12-01T13:40:16.736Z,1027.36
2022-12-01T13:41:51.438Z,1027.36
2022-12-01T13:42:54.323Z,1027.38
2022-12-01T13:44:02.618Z,1027.39
2022-12-01T13:45:44.179Z,1027.43
2022-12-01T13:46:47.308Z,1027.40
2022-12-01T13:47:50.443Z,1027.41
2022-12-01T13:49:28.868Z,1027.43
2022-12-01T13:50:35.290Z,1027.42
2022-12-01T13:51:38.176Z,1027.40
2022-12-01T13:53:12.766Z,1027.43
2022-12-01T13:54:15.564Z,1027.43
2022-12-01T13:55:18.392Z,1027.41
2022-12-01T13:56:53.081Z,1027.40
2022-12-01T13:57:55.982Z,1027.40
2022-12-01T13:58:58.821Z,1027.42
2022-12-01T14:00:22.821Z,1027.40
2022-12-01T14:01:26.750Z,1027.43
2022-12-01T14:02:30.681Z,1027.42
2022-12-01T14:04:08.420Z,1027.38
2022-12-01T14:05:11.262Z,1027.39
2022-12-01T14:06:14.058Z,1027.36
2022-12-01T14:07:49.009Z,1027.41
2022-12-01T14:08:52.248Z,1027.40
2022-12-01T14:09:54.983Z,1027.40
2022-12-01T14:11:29.876Z,1027.43
2022-12-01T14:12:32.952Z,1027.42
2022-12-01T14:13:35.654Z,1027.40
2022-12-01T14:15:17.493Z,1027.38
2022-12-01T14:16:20.589Z,1027.38
2022-12-01T14:17:23.819Z,1027.38
2022-12-01T14:18:58.473Z,1027.38
2022-12-01T14:20:01.193Z,1027.37
2022-12-01T14:21:03.961Z,1027.35
2022-12-01T14:22:38.433Z,1027.36
2022-12-01T14:23:41.345Z,1027.36
2022-12-01T14:24:44.279Z,1027.36
2022-12-01T14:26:19.114Z,1027.36
2022-12-01T14:27:24.673Z,1027.37
2022-12-01T14:28:27.392Z,1027.36
2022-12-01T14:30:02.092Z,1027.34
2022-12-01T14:31:04.994Z,1027.36
2022-12-01T14:32:08.064Z,1027.38
2022-12-01T14:33:42.601Z,1027.38
2022-12-01T14:34:45.397Z,1027.40
2022-12-01T14:35:48.686Z,1027.43
2022-12-01T14:37:23.176Z,1027.43
2022-12-01T14:38:26.012Z,1027.44
2022-12-01T14:39:28.742Z,1027.44
2022-12-01T14:41:03.241Z,1027.42
2022-12-01T14:42:13.913Z,1027.43
2022-12-01T14:43:16.539Z,1027.41
2022-12-01T14:44:51.682Z,1027.46
2022-12-01T14:45:55.041Z,1027.46
2022-12-01T14:46:58.254Z,1027.53
2022-12-01T14:48:32.991Z,1027.52
2022-12-01T14:49:35.908Z,1027.57
2022-12-01T14:50:45.090Z,1027.53
2022-12-01T14:52:20.969Z,1027.54
2022-12-01T14:53:23.932Z,1027.56
2022-12-01T14:54:26.770Z,1027.55
2022-12-01T14:56:01.376Z,1027.58
2022-12-01T14:57:16.520Z,1027.58